createdAt,value
2018-11-29T00:00:55.140Z,97444.03
2018-11-29T00:02:31.264Z,97448.09
2018-11-29T00:04:07.291Z,97437.84
2018-11-29T00:05:43.463Z,97441.52
2018-11-29T00:07:19.638Z,97432.80
2018-11-29T00:08:57.140Z,97431.84
2018-11-29T00:10:32.852Z,97429.12
2018-11-29T00:12:09.572Z,97421.78
2018-11-29T00:13:45.336Z,97416.17
2018-11-29T00:15:20.851Z,97419.84
2018-11-29T00:16:56.984Z,97414.81
2018-11-29T00:18:33.857Z,97410.94
2018-11-29T00:20:14.256Z,97410.17
2018-11-29T00:21:49.728Z,97409.59
2018-11-29T00:23:25.652Z,97407.27
2018-11-29T00:25:01.263Z,97397.40
2018-11-29T00:26:37.101Z,97406.30
2018-11-29T00:28:13.290Z,97408.84
2018-11-29T00:29:49.044Z,97407.66
2018-11-29T00:31:24.632Z,97407.07
2018-11-29T00:33:00.222Z,97394.11
2018-11-29T00:34:36.510Z,97394.69
2018-11-29T00:36:12.720Z,97383.11
2018-11-29T00:37:48.599Z,97376.50
2018-11-29T00:39:24.697Z,97385.02
2018-11-29T00:41:00.440Z,97381.92
2018-11-29T00:42:36.926Z,97377.86
2018-11-29T00:44:12.911Z,97383.81
2018-11-29T00:45:49.580Z,97393.53
2018-11-29T00:47:25.121Z,97387.11
2018-11-29T00:49:01.848Z,97397.17
2018-11-29T00:50:37.833Z,97381.68
2018-11-29T00:52:15.557Z,97389.05
2018-11-29T00:53:51.452Z,97399.52
2018-11-29T00:55:27.005Z,97404.52
2018-11-29T00:57:02.705Z,97401.80
2018-11-29T00:58:39.574Z,97397.94
2018-11-29T01:00:22.360Z,97398.48
2018-11-29T01:02:00.884Z,97401.00
2018-11-29T01:03:36.718Z,97408.78
2018-11-29T01:05:14.287Z,97409.35
2018-11-29T01:06:49.967Z,97407.38
2018-11-29T01:08:25.816Z,97402.94
2018-11-29T01:10:02.101Z,97402.36
2018-11-29T01:11:41.067Z,97401.37
2018-11-29T01:13:28.537Z,97402.73
2018-11-29T01:15:13.106Z,97393.24
2018-11-29T01:16:50.099Z,97402.73
2018-11-29T01:18:28.779Z,97400.60
2018-11-29T01:21:55.546Z,97410.23
2018-11-29T01:23:41.281Z,97397.84
2018-11-29T01:25:41.581Z,97408.11
2018-11-29T01:27:30.955Z,97393.01
2018-11-29T01:29:14.626Z,97398.05
2018-11-29T01:31:05.175Z,97401.13
2018-11-29T01:32:56.702Z,97407.14
2018-11-29T01:34:50.105Z,97403.85
2018-11-29T01:38:31.805Z,97392.23
2018-11-29T01:40:23.566Z,97396.67
2018-11-29T01:41:59.519Z,97392.81
2018-11-29T01:43:35.048Z,97399.59
2018-11-29T01:45:13.374Z,97402.69
2018-11-29T01:46:48.717Z,97407.53
2018-11-29T01:48:24.178Z,97403.27
2018-11-29T01:49:59.528Z,97408.11
2018-11-29T01:51:35.482Z,97406.36
2018-11-29T01:53:11.214Z,97405.77
2018-11-29T01:54:46.775Z,97401.52
2018-11-29T01:56:22.090Z,97401.13
2018-11-29T01:57:57.688Z,97407.91
2018-11-29T01:59:33.186Z,97396.30
2018-11-29T02:01:09.985Z,97401.90
2018-11-29T02:02:47.451Z,97397.45
2018-11-29T02:04:23.102Z,97396.67
2018-11-29T02:05:58.650Z,97401.13
2018-11-29T02:07:34.241Z,97401.13
2018-11-29T02:09:12.077Z,97405.20
2018-11-29T02:10:52.273Z,97405.59
2018-11-29T02:12:28.406Z,97398.05
2018-11-29T02:14:03.634Z,97393.59
2018-11-29T02:15:39.065Z,97390.53
2018-11-29T02:17:14.879Z,97384.92
2018-11-29T02:18:50.335Z,97387.44
2018-11-29T02:20:25.584Z,97387.44
2018-11-29T02:22:01.316Z,97381.02
2018-11-29T02:23:42.006Z,97381.24
2018-11-29T02:25:17.378Z,97376.36
2018-11-29T02:26:53.068Z,97376.75
2018-11-29T02:28:28.867Z,97373.64
2018-11-29T02:30:05.894Z,97372.47
2018-11-29T02:31:41.901Z,97371.14
2018-11-29T02:33:17.499Z,97373.27
2018-11-29T02:34:53.144Z,97375.19
2018-11-29T02:36:29.100Z,97369.20
2018-11-29T02:38:04.976Z,97379.83
2018-11-29T02:39:40.762Z,97377.31
2018-11-29T02:41:16.311Z,97380.61
2018-11-29T02:42:51.992Z,97378.09
2018-11-29T02:44:27.422Z,97377.50
2018-11-29T02:46:02.930Z,97376.15
2018-11-29T02:47:39.023Z,97378.44
2018-11-29T02:49:15.110Z,97380.37
2018-11-29T02:50:50.767Z,97381.96
2018-11-29T02:52:26.285Z,97380.61
2018-11-29T02:54:02.277Z,97370.69
2018-11-29T02:55:39.400Z,97385.05
2018-11-29T02:57:14.937Z,97380.80
2018-11-29T02:58:50.408Z,97385.45
2018-11-29T03:00:26.188Z,97374.56
2018-11-29T03:02:01.862Z,97383.12
2018-11-29T03:03:38.504Z,97378.67
2018-11-29T03:05:13.992Z,97383.52
2018-11-29T03:06:49.622Z,97375.98
2018-11-29T03:08:25.035Z,97369.78
2018-11-29T03:10:01.404Z,97378.30
2018-11-29T03:11:37.131Z,97378.48
2018-11-29T03:13:13.195Z,97374.62
2018-11-29T03:14:48.659Z,97376.94
2018-11-29T03:16:24.097Z,97381.39
2018-11-29T03:17:59.801Z,97382.36
2018-11-29T03:19:35.587Z,97378.34
2018-11-29T03:21:11.390Z,97382.78
2018-11-29T03:22:47.120Z,97373.64
2018-11-29T03:24:22.596Z,97379.65
2018-11-29T03:25:57.995Z,97369.77
2018-11-29T03:27:33.851Z,97373.84
2018-11-29T03:29:09.506Z,97381.20
2018-11-29T03:30:44.784Z,97382.17
2018-11-29T03:32:20.237Z,97380.66
2018-11-29T03:33:55.625Z,97385.64
2018-11-29T03:35:31.450Z,97377.33
2018-11-29T03:37:08.012Z,97378.88
2018-11-29T03:38:43.591Z,97384.68
2018-11-29T03:40:19.010Z,97384.86
2018-11-29T03:41:54.818Z,97375.38
2018-11-29T03:43:30.355Z,97380.02
2018-11-29T03:45:08.357Z,97371.50
2018-11-29T03:46:45.072Z,97386.37
2018-11-29T03:48:21.336Z,97386.77
2018-11-29T03:49:57.142Z,97392.36
2018-11-29T03:51:32.939Z,97387.13
2018-11-29T03:53:08.620Z,97391.58
2018-11-29T03:54:44.079Z,97381.85
2018-11-29T03:56:19.620Z,97385.38
2018-11-29T03:57:55.506Z,97384.36
2018-11-29T03:59:31.389Z,97381.06
2018-11-29T04:01:07.748Z,97385.51
2018-11-29T04:02:43.657Z,97389.19
2018-11-29T04:04:20.061Z,97380.48
2018-11-29T04:05:57.160Z,97387.65
2018-11-29T04:07:32.702Z,97380.47
2018-11-29T04:09:12.789Z,97386.23
2018-11-29T04:10:48.394Z,97391.89
2018-11-29T04:12:24.039Z,97398.06
2018-11-29T04:14:00.672Z,97389.51
2018-11-29T04:15:36.029Z,97408.30
2018-11-29T04:17:13.376Z,97402.30
2018-11-29T04:18:49.121Z,97410.06
2018-11-29T04:20:23.946Z,97419.33
2018-11-29T04:21:59.806Z,97418.57
2018-11-29T04:23:35.923Z,97427.88
2018-11-29T04:25:12.878Z,97431.11
2018-11-29T04:26:48.323Z,97429.37
2018-11-29T04:28:24.019Z,97429.98
2018-11-29T04:29:59.880Z,97430.38
2018-11-29T04:31:35.558Z,97430.00
2018-11-29T04:33:14.290Z,97440.08
2018-11-29T04:34:50.904Z,97438.14
2018-11-29T04:36:27.209Z,97441.42
2018-11-29T04:38:03.580Z,97445.48
2018-11-29T04:39:39.988Z,97441.38
2018-11-29T04:41:16.688Z,97457.11
2018-11-29T04:42:53.594Z,97461.18
2018-11-29T04:44:29.097Z,97455.33
2018-11-29T04:46:44.758Z,97477.59
2018-11-29T04:48:20.485Z,97469.28
2018-11-29T04:49:56.721Z,97472.58
2018-11-29T04:51:32.746Z,97478.81
2018-11-29T04:53:08.507Z,97483.80
2018-11-29T04:54:45.164Z,97481.72
2018-11-29T04:56:21.078Z,97484.00
2018-11-29T04:57:56.557Z,97483.62
2018-11-29T04:59:32.012Z,97489.23
2018-11-29T05:01:07.788Z,97484.38
2018-11-29T05:02:43.237Z,97491.56
2018-11-29T05:04:18.805Z,97486.72
2018-11-29T05:05:54.687Z,97496.59
2018-11-29T05:07:32.823Z,97491.55
2018-11-29T05:09:10.861Z,97492.91
2018-11-29T05:10:48.073Z,97495.63
2018-11-29T05:12:23.974Z,97493.11
2018-11-29T05:13:59.442Z,97494.08
2018-11-29T05:15:35.135Z,97492.33
2018-11-29T05:17:11.528Z,97485.92
2018-11-29T05:18:47.895Z,97489.56
2018-11-29T05:20:24.120Z,97488.06
2018-11-29T05:22:01.257Z,97488.63
2018-11-29T05:23:37.813Z,97487.63
2018-11-29T05:25:14.455Z,97477.78
2018-11-29T05:26:50.986Z,97477.20
2018-11-29T05:28:27.372Z,97475.84
2018-11-29T05:30:04.483Z,97477.55
2018-11-29T05:31:40.080Z,97479.33
2018-11-29T05:33:16.385Z,97475.06
2018-11-29T05:34:51.739Z,97469.06
2018-11-29T05:36:27.122Z,97469.83
2018-11-29T05:38:03.071Z,97471.19
2018-11-29T05:39:39.688Z,97470.81
2018-11-29T05:41:17.540Z,97469.84
2018-11-29T05:42:53.349Z,97472.75
2018-11-29T05:44:29.190Z,97477.02
2018-11-29T05:46:05.168Z,97481.87
2018-11-29T05:47:43.239Z,97478.39
2018-11-29T05:49:20.198Z,97474.56
2018-11-29T05:50:56.490Z,97472.44
2018-11-29T05:52:32.311Z,97474.41
2018-11-29T05:54:08.281Z,97477.52
2018-11-29T05:55:44.434Z,97470.16
2018-11-29T05:57:23.682Z,97477.38
2018-11-29T05:58:59.168Z,97471.17
2018-11-29T06:00:34.938Z,97477.95
2018-11-29T06:02:11.511Z,97473.31
2018-11-29T06:03:47.914Z,97476.83
2018-11-29T06:05:24.349Z,97473.54
2018-11-29T06:07:00.691Z,97474.12
2018-11-29T06:08:36.347Z,97485.16
2018-11-29T06:10:12.406Z,97487.29
2018-11-29T06:11:50.611Z,97486.91
2018-11-29T06:13:30.608Z,97488.45
2018-11-29T06:15:14.477Z,97491.19
2018-11-29T06:16:50.900Z,97511.30
2018-11-29T06:18:28.302Z,97514.81
2018-11-29T06:20:04.235Z,97522.94
2018-11-29T06:21:40.602Z,97522.35
2018-11-29T06:23:18.336Z,97525.06
2018-11-29T06:24:56.708Z,97520.83
2018-11-29T06:26:32.318Z,97523.15
2018-11-29T06:28:10.189Z,97529.34
2018-11-29T06:29:46.590Z,97533.98
2018-11-29T06:31:22.597Z,97538.82
2018-11-29T06:32:59.516Z,97547.53
2018-11-29T06:34:36.511Z,97545.78
2018-11-29T06:36:15.593Z,97542.70
2018-11-29T06:37:51.212Z,97544.44
2018-11-29T06:39:26.558Z,97549.09
2018-11-29T06:41:03.579Z,97548.31
2018-11-29T06:42:40.147Z,97542.69
2018-11-29T06:44:15.973Z,97545.62
2018-11-29T06:45:51.423Z,97556.83
2018-11-29T06:47:26.768Z,97559.33
2018-11-29T06:49:02.544Z,97547.53
2018-11-29T06:50:38.473Z,97547.13
2018-11-29T06:52:13.955Z,97541.36
2018-11-29T06:53:54.326Z,97547.55
2018-11-29T06:55:30.591Z,97545.20
2018-11-29T06:57:06.285Z,97544.05
2018-11-29T06:58:43.616Z,97539.80
2018-11-29T07:00:26.247Z,97538.06
2018-11-29T07:02:02.943Z,97547.35
2018-11-29T07:03:38.861Z,97542.31
2018-11-29T07:05:17.454Z,97537.67
2018-11-29T07:06:56.700Z,97537.48
2018-11-29T07:08:33.395Z,97536.91
2018-11-29T07:10:31.239Z,97534.39
2018-11-29T07:12:08.631Z,97527.23
2018-11-29T07:13:46.226Z,97534.59
2018-11-29T07:15:24.465Z,97524.14
2018-11-29T07:17:00.854Z,97529.94
2018-11-29T07:18:37.746Z,97533.23
2018-11-29T07:20:17.910Z,97538.84
2018-11-29T07:21:56.850Z,97527.03
2018-11-29T07:23:34.592Z,97532.84
2018-11-29T07:25:12.643Z,97532.84
2018-11-29T07:26:49.240Z,97537.48
2018-11-29T07:28:32.575Z,97538.25
2018-11-29T07:30:15.214Z,97539.41
2018-11-29T07:31:50.921Z,97528.78
2018-11-29T07:33:27.838Z,97531.09
2018-11-29T07:35:03.644Z,97526.05
2018-11-29T07:36:41.620Z,97531.11
2018-11-29T07:38:19.873Z,97534.38
2018-11-29T07:39:55.651Z,97530.12
2018-11-29T07:41:31.291Z,97540.77
2018-11-29T07:43:10.007Z,97539.61
2018-11-29T07:44:48.287Z,97536.12
2018-11-29T07:46:26.466Z,97529.95
2018-11-29T07:48:04.250Z,97524.14
2018-11-29T07:49:40.961Z,97516.80
2018-11-29T07:51:18.686Z,97529.95
2018-11-29T07:52:54.095Z,97519.31
2018-11-29T07:54:31.628Z,97520.09
2018-11-29T07:56:08.434Z,97526.64
2018-11-29T07:57:44.290Z,97525.88
2018-11-29T07:59:20.031Z,97525.09
2018-11-29T08:00:56.044Z,97522.00
2018-11-29T08:02:35.121Z,97511.95
2018-11-29T08:04:12.339Z,97513.89
2018-11-29T08:05:49.308Z,97511.56
2018-11-29T08:07:27.349Z,97502.28
2018-11-29T08:09:10.226Z,97512.91
2018-11-29T08:10:48.540Z,97513.88
2018-11-29T08:12:25.074Z,97524.13
2018-11-29T08:14:01.327Z,97514.66
2018-11-29T08:15:39.769Z,97511.36
2018-11-29T08:17:19.804Z,97523.73
2018-11-29T08:18:57.437Z,97522.96
2018-11-29T08:20:33.715Z,97517.16
2018-11-29T08:22:12.374Z,97523.52
2018-11-29T08:23:48.306Z,97516.73
2018-11-29T08:25:25.437Z,97519.06
2018-11-29T08:27:01.537Z,97505.32
2018-11-29T08:28:38.350Z,97500.87
2018-11-29T08:30:20.427Z,97495.61
2018-11-29T08:31:58.106Z,97488.06
2018-11-29T08:33:37.125Z,97480.90
2018-11-29T08:35:16.453Z,97482.83
2018-11-29T08:36:53.699Z,97475.67
2018-11-29T08:38:29.991Z,97465.37
2018-11-29T08:41:53.338Z,97471.37
2018-11-29T08:43:29.637Z,97457.81
2018-11-29T08:45:08.701Z,97460.72
2018-11-29T08:46:46.836Z,97462.27
2018-11-29T08:48:24.232Z,97467.11
2018-11-29T08:50:01.595Z,97476.22
2018-11-29T08:51:39.547Z,97492.67
2018-11-29T08:53:15.511Z,97507.58
2018-11-29T08:54:54.609Z,97505.06
2018-11-29T08:56:32.234Z,97528.66
2018-11-29T08:58:12.083Z,97574.75
2018-11-29T08:59:51.546Z,97591.41
2018-11-29T09:01:31.166Z,97599.16
2018-11-29T09:03:10.620Z,97610.00
2018-11-29T09:04:46.328Z,97633.63
2018-11-29T09:06:24.446Z,97641.19
2018-11-29T09:08:00.244Z,97654.55
2018-11-29T09:09:37.116Z,97662.86
2018-11-29T09:11:13.477Z,97685.14
2018-11-29T09:12:51.251Z,97700.06
2018-11-29T09:14:26.777Z,97714.02
2018-11-29T09:16:02.719Z,97737.84
2018-11-29T09:17:38.525Z,97753.52
2018-11-29T09:19:14.629Z,97759.53
2018-11-29T09:20:50.271Z,97774.07
2018-11-29T09:22:26.739Z,97797.91
2018-11-29T09:24:02.198Z,97827.56
2018-11-29T09:25:40.069Z,97825.22
2018-11-29T09:27:15.974Z,97813.59
2018-11-29T09:28:51.841Z,97804.48
2018-11-29T09:30:28.146Z,97788.02
2018-11-29T09:32:03.800Z,97786.45
2018-11-29T09:33:40.967Z,97772.11
2018-11-29T09:35:17.554Z,97762.61
2018-11-29T09:36:56.470Z,97756.44
2018-11-29T09:38:34.341Z,97744.97
2018-11-29T09:40:12.543Z,97713.38
2018-11-29T09:41:50.538Z,97690.11
2018-11-29T09:43:26.807Z,97666.84
2018-11-29T09:45:04.330Z,97653.09
2018-11-29T09:46:41.023Z,97624.40
2018-11-29T09:48:16.893Z,97622.46
2018-11-29T09:49:52.761Z,97621.30
2018-11-29T09:51:28.279Z,97615.29
2018-11-29T09:53:04.039Z,97626.34
2018-11-29T09:54:42.316Z,97642.81
2018-11-29T09:56:20.934Z,97587.58
2018-11-29T09:57:56.286Z,97373.38
2018-11-29T09:59:36.111Z,97260.15
2018-11-29T10:01:11.987Z,97244.42
2018-11-29T10:02:55.419Z,97237.77
2018-11-29T10:04:32.155Z,97228.86
2018-11-29T10:06:09.780Z,97217.41
2018-11-29T10:07:47.574Z,97219.48
2018-11-29T10:09:24.544Z,97203.84
2018-11-29T10:11:00.959Z,97193.52
2018-11-29T10:12:37.635Z,97185.84
2018-11-29T10:14:16.137Z,97186.08
2018-11-29T10:15:54.028Z,97179.45
2018-11-29T10:17:30.154Z,97172.63
2018-11-29T10:19:05.816Z,97172.42
2018-11-29T10:20:41.623Z,97171.86
2018-11-29T10:22:17.061Z,97162.73
2018-11-29T10:23:54.628Z,97164.49
2018-11-29T10:25:29.971Z,97172.23
2018-11-29T10:27:05.685Z,97174.20
2018-11-29T10:28:46.396Z,97171.38
2018-11-29T10:30:30.069Z,97167.61
2018-11-29T10:32:05.467Z,97174.27
2018-11-29T10:33:41.301Z,97181.67
2018-11-29T10:35:17.527Z,97184.23
2018-11-29T10:36:55.689Z,97193.91
2018-11-29T10:38:31.823Z,97201.52
2018-11-29T10:40:10.933Z,97206.97
2018-11-29T10:41:48.831Z,97201.97
2018-11-29T10:43:25.272Z,97203.73
2018-11-29T10:45:03.596Z,97196.05
2018-11-29T10:46:40.402Z,97190.63
2018-11-29T10:48:17.728Z,97204.77
2018-11-29T10:49:54.044Z,97203.66
2018-11-29T10:51:29.568Z,97201.09
2018-11-29T10:53:05.920Z,97198.02
2018-11-29T10:54:41.794Z,97189.88
2018-11-29T10:56:17.369Z,97188.70
2018-11-29T10:57:52.902Z,97196.63
2018-11-29T10:59:28.952Z,97193.12
2018-11-29T11:01:10.315Z,97197.53
2018-11-29T11:02:51.142Z,97190.94
2018-11-29T11:04:26.463Z,97192.45
2018-11-29T11:06:02.188Z,97196.44
2018-11-29T11:07:40.092Z,97195.66
2018-11-29T11:09:17.933Z,97200.30
2018-11-29T11:10:53.898Z,97203.78
2018-11-29T11:12:44.086Z,97219.07
2018-11-29T11:14:23.551Z,97247.97
2018-11-29T11:16:02.079Z,97275.64
2018-11-29T11:17:38.262Z,97308.90
2018-11-29T11:19:13.816Z,97346.97
2018-11-29T11:20:49.291Z,97383.94
2018-11-29T11:22:25.476Z,97434.72
2018-11-29T11:24:01.232Z,97483.52
2018-11-29T11:25:36.527Z,97536.06
2018-11-29T11:27:12.027Z,97595.01
2018-11-29T11:28:48.166Z,97846.75
2018-11-29T11:30:25.236Z,97935.76
2018-11-29T11:32:02.286Z,97984.45
2018-11-29T11:33:41.348Z,98018.79
2018-11-29T11:35:16.784Z,98071.37
2018-11-29T11:36:52.664Z,98184.86
2018-11-29T11:38:28.812Z,98229.09
2018-11-29T11:40:05.114Z,98272.55
2018-11-29T11:41:40.567Z,98287.47
2018-11-29T11:43:17.583Z,98306.24
2018-11-29T11:44:53.780Z,98330.52
2018-11-29T11:46:31.476Z,98343.48
2018-11-29T11:48:08.814Z,98383.27
2018-11-29T11:49:44.498Z,98397.22
2018-11-29T11:51:21.757Z,98415.08
2018-11-29T11:52:59.156Z,98463.13
2018-11-29T11:54:34.616Z,98501.94
2018-11-29T11:56:11.401Z,98526.70
2018-11-29T11:57:47.268Z,98540.44
2018-11-29T11:59:23.404Z,98552.66
2018-11-29T12:01:00.304Z,98567.00
2018-11-29T12:02:36.998Z,98584.48
2018-11-29T12:04:13.465Z,98596.03
2018-11-29T12:05:50.512Z,98629.33
2018-11-29T12:07:26.890Z,98672.13
2018-11-29T12:09:04.927Z,98687.22
2018-11-29T12:10:42.690Z,98735.41
2018-11-29T12:12:21.069Z,98745.48
2018-11-29T12:13:57.447Z,98744.31
2018-11-29T12:15:33.162Z,98749.56
2018-11-29T12:17:08.268Z,98758.28
2018-11-29T12:18:45.633Z,98731.28
2018-11-29T12:20:22.495Z,98735.02
2018-11-29T12:21:59.412Z,98724.95
2018-11-29T12:23:35.034Z,98721.99
2018-11-29T12:25:13.029Z,98708.78
2018-11-29T12:26:48.296Z,98700.84
2018-11-29T12:28:24.855Z,98706.00
2018-11-29T12:30:00.640Z,98693.79
2018-11-29T12:31:37.236Z,98684.56
2018-11-29T12:33:12.321Z,98675.42
2018-11-29T12:34:48.600Z,98657.05
2018-11-29T12:36:24.446Z,98648.33
2018-11-29T12:38:00.382Z,98625.41
2018-11-29T12:39:35.614Z,98604.99
2018-11-29T12:41:14.151Z,98598.00
2018-11-29T12:42:49.348Z,98588.13
2018-11-29T12:44:26.495Z,98579.42
2018-11-29T12:46:02.539Z,98554.52
2018-11-29T12:47:38.034Z,98556.80
2018-11-29T12:49:14.204Z,98551.73
2018-11-29T12:50:50.078Z,98560.23
2018-11-29T12:52:25.730Z,98559.38
2018-11-29T12:54:01.959Z,98560.37
2018-11-29T12:55:41.650Z,98532.77
2018-11-29T12:57:18.374Z,98530.00
2018-11-29T12:58:53.855Z,98523.77
2018-11-29T13:00:31.853Z,98533.84
2018-11-29T13:02:08.291Z,98534.78
2018-11-29T13:03:43.708Z,98539.78
2018-11-29T13:05:22.326Z,98539.38
2018-11-29T13:06:58.186Z,98536.42
2018-11-29T13:08:34.206Z,98524.16
2018-11-29T13:10:09.590Z,98532.03
2018-11-29T13:11:46.797Z,98530.26
2018-11-29T13:13:22.067Z,98530.81
2018-11-29T13:14:57.926Z,98546.03
2018-11-29T13:16:35.238Z,98583.20
2018-11-29T13:18:11.312Z,98589.53
2018-11-29T13:19:47.250Z,98583.69
2018-11-29T13:21:23.710Z,98592.97
2018-11-29T13:22:58.912Z,98582.75
2018-11-29T13:24:34.129Z,98584.86
2018-11-29T13:26:09.406Z,98571.52
2018-11-29T13:27:47.711Z,98542.66
2018-11-29T13:29:23.520Z,98549.62
2018-11-29T13:31:00.981Z,98572.66
2018-11-29T13:32:39.501Z,98566.67
2018-11-29T13:34:15.002Z,98579.86
2018-11-29T13:35:51.163Z,98558.74
2018-11-29T13:37:37.007Z,98557.17
2018-11-29T13:39:20.689Z,98556.81
2018-11-29T13:40:59.564Z,98550.22
2018-11-29T13:42:46.344Z,98557.72
2018-11-29T13:44:22.357Z,98557.72
2018-11-29T13:46:00.261Z,98573.14
2018-11-29T13:47:35.883Z,98600.77
2018-11-29T13:49:11.632Z,98671.29
2018-11-29T13:50:49.518Z,98678.70
2018-11-29T13:52:27.390Z,98686.08
2018-11-29T13:54:03.019Z,98692.57
2018-11-29T13:55:39.884Z,98674.54
2018-11-29T13:57:16.601Z,98711.94
2018-11-29T13:58:51.808Z,98728.82
2018-11-29T14:00:29.184Z,98717.11
2018-11-29T14:02:07.132Z,98712.35
2018-11-29T14:03:44.085Z,98670.28
2018-11-29T14:05:19.439Z,98689.27
2018-11-29T14:06:56.532Z,98698.77
2018-11-29T14:08:31.716Z,98699.07
2018-11-29T14:10:10.002Z,98683.73
2018-11-29T14:11:45.491Z,98665.52
2018-11-29T14:13:20.997Z,98680.92
2018-11-29T14:14:56.483Z,98666.00
2018-11-29T14:16:34.862Z,98661.92
2018-11-29T14:18:11.078Z,98655.56
2018-11-29T14:19:46.545Z,98652.84
2018-11-29T14:21:25.378Z,98637.53
2018-11-29T14:23:03.563Z,98645.10
2018-11-29T14:24:39.279Z,98660.45
2018-11-29T14:26:17.121Z,98671.94
2018-11-29T14:27:58.712Z,98646.36
2018-11-29T14:29:35.513Z,98635.71
2018-11-29T14:31:11.772Z,98623.14
2018-11-29T14:32:49.044Z,98643.70
2018-11-29T14:34:26.094Z,98655.28
2018-11-29T14:36:03.134Z,98633.00
2018-11-29T14:37:40.467Z,98595.73
2018-11-29T14:39:17.954Z,98591.01
2018-11-29T14:40:56.397Z,98564.18
2018-11-29T14:42:33.880Z,98554.40
2018-11-29T14:44:14.026Z,98557.58
2018-11-29T14:46:03.584Z,98576.93
2018-11-29T14:47:42.495Z,98564.30
2018-11-29T14:49:19.481Z,98546.88
2018-11-29T14:50:55.266Z,98538.17
2018-11-29T14:52:40.352Z,98576.12
2018-11-29T14:54:16.720Z,98583.47
2018-11-29T14:55:52.271Z,98588.92
2018-11-29T14:57:27.860Z,98624.97
2018-11-29T14:59:03.748Z,98631.72
2018-11-29T15:00:39.456Z,98642.97
2018-11-29T15:02:16.779Z,98672.80
2018-11-29T15:03:53.259Z,98705.17
2018-11-29T15:05:30.432Z,98739.59
2018-11-29T15:07:08.216Z,98772.85
2018-11-29T15:08:45.348Z,98794.13
2018-11-29T15:10:22.830Z,98789.84
2018-11-29T15:11:58.673Z,98802.05
2018-11-29T15:13:36.440Z,98827.20
2018-11-29T15:15:14.176Z,98865.43
2018-11-29T15:16:51.508Z,98904.63
2018-11-29T15:18:28.084Z,98946.09
2018-11-29T15:20:04.733Z,98979.57
2018-11-29T15:21:41.142Z,98992.30
2018-11-29T15:23:21.177Z,99026.91
2018-11-29T15:24:58.921Z,99037.19
2018-11-29T15:26:35.764Z,99053.12
2018-11-29T15:28:12.331Z,99079.55
2018-11-29T15:29:48.822Z,99104.66
2018-11-29T15:31:25.667Z,99165.69
2018-11-29T15:33:02.000Z,99231.39
2018-11-29T15:34:39.478Z,99331.59
2018-11-29T15:36:19.171Z,99487.55
2018-11-29T15:37:58.514Z,99565.32
2018-11-29T15:39:37.486Z,99611.52
2018-11-29T15:41:18.049Z,99611.77
2018-11-29T15:42:49.071Z,99648.23
2018-11-29T15:44:26.544Z,99675.13
2018-11-29T15:46:02.976Z,99711.95
2018-11-29T15:47:38.254Z,99741.78
2018-11-29T15:49:13.564Z,99787.41
2018-11-29T15:50:49.526Z,99803.91
2018-11-29T15:52:24.780Z,99846.72
2018-11-29T15:54:00.454Z,99891.14
2018-11-29T15:55:39.922Z,99895.02
2018-11-29T15:57:17.643Z,99936.02
2018-11-29T15:58:53.791Z,99960.20
2018-11-29T16:00:46.596Z,100001.99
2018-11-29T16:02:33.521Z,100047.70
2018-11-29T16:04:18.577Z,100069.78
2018-11-29T16:05:55.454Z,100086.62
2018-11-29T16:07:31.733Z,100093.81
2018-11-29T16:09:14.410Z,100113.12
2018-11-29T16:10:51.856Z,100121.78
2018-11-29T16:12:29.280Z,100136.94
2018-11-29T16:20:20.186Z,100333.40
2018-11-29T16:21:56.068Z,100355.55
2018-11-29T16:23:32.547Z,100385.23
2018-11-29T16:25:11.772Z,100425.42
2018-11-29T16:26:49.286Z,100450.45
2018-11-29T16:28:27.202Z,100485.64
2018-11-29T16:30:04.818Z,100542.83
2018-11-29T16:31:41.521Z,100586.70
2018-11-29T16:33:24.330Z,100636.34
2018-11-29T16:35:02.405Z,100694.87
2018-11-29T16:36:41.371Z,100728.48
2018-11-29T16:38:16.845Z,100756.69
2018-11-29T16:39:56.115Z,100753.61
2018-11-29T16:41:33.649Z,100755.03
2018-11-29T16:43:11.065Z,100740.56
2018-11-29T16:44:47.090Z,100700.09
2018-11-29T16:46:24.007Z,100647.55
2018-11-29T16:48:01.859Z,100599.11
2018-11-29T16:49:38.256Z,100558.25
2018-11-29T16:51:14.016Z,100508.59
2018-11-29T16:52:53.784Z,100475.47
2018-11-29T16:54:31.655Z,100446.64
2018-11-29T16:56:08.725Z,100423.89
2018-11-29T16:57:53.144Z,100420.67
2018-11-29T16:59:29.150Z,100381.08
2018-11-29T17:01:08.839Z,100339.32
2018-11-29T17:02:47.613Z,100297.08
2018-11-29T17:04:23.194Z,100219.16
2018-11-29T17:06:12.135Z,100132.11
2018-11-29T17:07:50.668Z,100029.62
2018-11-29T17:09:32.792Z,99910.20
2018-11-29T17:11:11.197Z,99774.20
2018-11-29T17:12:52.759Z,99751.25
2018-11-29T17:14:29.825Z,99634.72
2018-11-29T17:16:06.265Z,99440.41
2018-11-29T17:17:43.308Z,99247.13
2018-11-29T17:19:20.645Z,99013.39
2018-11-29T17:21:01.399Z,98767.72
2018-11-29T17:24:20.152Z,98286.36
2018-11-29T17:25:57.083Z,98086.41
2018-11-29T17:29:18.306Z,97930.91
2018-11-29T17:30:54.378Z,97937.11
2018-11-29T17:32:30.339Z,97763.37
2018-11-29T17:34:09.039Z,97636.41
2018-11-29T17:35:49.684Z,97495.62
2018-11-29T17:42:59.698Z,97311.72
2018-11-29T17:44:36.060Z,96809.16
2018-11-29T17:46:11.527Z,96730.94
2018-11-29T17:47:48.595Z,96704.52
2018-11-29T17:49:24.429Z,96655.56
2018-11-29T17:50:59.844Z,96629.38
2018-11-29T17:52:35.284Z,96614.72
2018-11-29T17:54:12.359Z,96617.31
2018-11-29T17:55:47.867Z,96605.94
2018-11-29T17:57:24.827Z,96592.08
2018-11-29T17:59:02.876Z,96589.48
2018-11-29T18:00:38.811Z,96553.88
2018-11-29T18:02:14.653Z,96545.56
2018-11-29T18:03:51.592Z,96531.33
2018-11-29T18:05:28.138Z,96528.61
2018-11-29T18:07:07.361Z,96506.20
2018-11-29T18:08:44.805Z,96483.81
2018-11-29T18:10:25.601Z,96467.37
2018-11-29T18:12:02.908Z,96462.77
2018-11-29T18:13:41.150Z,96460.22
2018-11-29T18:15:22.700Z,96466.65
2018-11-29T18:16:58.439Z,96456.31
2018-11-29T18:18:37.643Z,96452.57
2018-11-29T18:20:16.716Z,96448.77
2018-11-29T18:21:54.975Z,96422.67
2018-11-29T18:23:32.003Z,96428.51
2018-11-29T18:25:12.146Z,96422.91
2018-11-29T18:26:53.827Z,96428.58
2018-11-29T18:28:31.935Z,96426.87
2018-11-29T18:30:17.966Z,96440.12
2018-11-29T18:31:57.477Z,96453.30
2018-11-29T18:33:51.138Z,96451.17
2018-11-29T18:35:31.663Z,96442.70
2018-11-29T18:37:10.979Z,96447.59
2018-11-29T18:38:48.137Z,96450.36
2018-11-29T18:40:25.779Z,96447.21
2018-11-29T18:42:04.085Z,96449.92
2018-11-29T18:43:46.557Z,96444.33
2018-11-29T18:45:39.849Z,96450.16
2018-11-29T18:47:28.428Z,96462.23
2018-11-29T18:49:23.163Z,96460.48
2018-11-29T18:51:00.343Z,96465.28
2018-11-29T18:52:37.182Z,96465.64
2018-11-29T18:54:12.470Z,96469.70
2018-11-29T18:55:48.414Z,96461.33
2018-11-29T18:57:23.880Z,96455.22
2018-11-29T18:59:00.590Z,96455.23
2018-11-29T19:00:37.751Z,96445.87
2018-11-29T19:02:13.572Z,96450.30
2018-11-29T19:03:48.833Z,96445.53
2018-11-29T19:05:24.180Z,96439.76
2018-11-29T19:07:01.372Z,96439.52
2018-11-29T19:08:37.525Z,96441.95
2018-11-29T19:10:21.306Z,96444.48
2018-11-29T19:12:01.445Z,96437.05
2018-11-29T19:13:37.435Z,96434.02
2018-11-29T19:15:19.082Z,96446.84
2018-11-29T19:16:59.427Z,96444.13
2018-11-29T19:18:38.360Z,96436.95
2018-11-29T19:20:18.979Z,96437.54
2018-11-29T19:21:56.107Z,96432.48
2018-11-29T19:23:31.529Z,96426.36